FABL/BFN METAR and TAF weather

Enter ICAO airport designator
Station Type Date Time Source
FABL METAR 2021/09/16 11:00 UTC NOAA

FABL 161100Z 29012KT 260V320 9999 FEW030 21/M07 Q1017 NOSIG


Station Type Date Time Source
FABL Decoded METAR 2021/09/16 11:00 UTC NOAA

Bloemfontein, Bloemfontein Airport, South Africa (FABL) 29-06S 026-18E 1400M
Sep 16, 2021 - 07:00 AM EDT / 2021.09.16 1100 UTC
Wind: from the WNW (290 degrees) at 14 MPH (12 KT) (direction variable):0
Visibility: greater than 7 mile(s):0
Sky conditions: mostly clear
Temperature: 69 F (21 C)
Dew Point: 19 F (-7 C)
Relative Humidity: 14%
Pressure (altimeter): 30.03 in. Hg (1017 hPa)
ob: FABL 161100Z 29012KT 260V320 9999 FEW030 21/M07 Q1017 NOSIG
cycle: 11

Station Type Date Time Source
FABL TAF 2021/09/16 12:04 UTC NOAA

TAF FABL 161000Z 1612/1712 24010KT CAVOK TX22/1612Z TN04/1704Z

Example: see airport list